createdAt,value
2022-12-11T00:00:25.815Z,96.17
2022-12-11T00:02:53.202Z,96.17
2022-12-11T00:05:19.900Z,96.11
2022-12-11T00:07:46.625Z,95.96
2022-12-11T00:10:13.283Z,96.00
2022-12-11T00:12:39.931Z,95.95
2022-12-11T00:15:07.220Z,95.86
2022-12-11T00:17:34.062Z,95.88
2022-12-11T00:20:00.664Z,95.78
2022-12-11T00:22:27.270Z,95.80
2022-12-11T00:24:53.947Z,95.71
2022-12-11T00:27:20.518Z,95.46
2022-12-11T00:29:47.061Z,95.45
2022-12-11T00:32:13.656Z,95.35
2022-12-11T00:34:40.382Z,95.36
2022-12-11T00:37:07.080Z,95.13
2022-12-11T00:39:33.751Z,95.13
2022-12-11T00:42:00.723Z,95.02
2022-12-11T00:44:27.273Z,95.16
2022-12-11T00:46:53.826Z,94.91
2022-12-11T00:49:20.544Z,95.03
2022-12-11T00:51:47.109Z,94.98
2022-12-11T00:54:14.627Z,94.81
2022-12-11T00:56:41.210Z,94.73
2022-12-11T00:59:07.982Z,94.74
2022-12-11T01:01:35.015Z,94.62
2022-12-11T01:04:01.695Z,94.51
2022-12-11T01:06:28.720Z,94.45
2022-12-11T01:09:14.965Z,94.50
2022-12-11T01:11:42.929Z,94.55
2022-12-11T01:14:10.882Z,94.55
2022-12-11T01:16:37.691Z,94.49
2022-12-11T01:19:04.455Z,94.26
2022-12-11T01:21:31.202Z,94.31
2022-12-11T01:23:57.875Z,94.30
2022-12-11T01:26:24.539Z,94.13
2022-12-11T01:28:51.874Z,94.13
2022-12-11T01:31:20.029Z,94.10
2022-12-11T01:33:46.668Z,94.06
2022-12-11T01:36:19.497Z,93.84
2022-12-11T01:38:47.954Z,93.82
2022-12-11T01:41:15.536Z,93.81
2022-12-11T01:43:59.917Z,93.88
2022-12-11T01:46:27.759Z,93.58
2022-12-11T01:48:55.966Z,93.52
2022-12-11T01:51:24.032Z,93.64
2022-12-11T01:54:00.855Z,93.53
2022-12-11T01:56:31.725Z,93.43
2022-12-11T01:59:06.831Z,93.53
2022-12-11T02:02:09.164Z,93.49
2022-12-11T02:04:38.586Z,93.36
2022-12-11T02:07:05.847Z,93.53
2022-12-11T02:09:35.107Z,93.37
2022-12-11T02:12:07.704Z,93.35
2022-12-11T02:14:49.484Z,93.32
2022-12-11T02:17:26.144Z,93.24
2022-12-11T02:20:15.013Z,93.27
2022-12-11T02:23:12.193Z,93.34
2022-12-11T02:25:57.838Z,93.18
2022-12-11T02:28:27.356Z,93.38
2022-12-11T02:31:10.492Z,93.32
2022-12-11T02:33:45.749Z,93.30
2022-12-11T02:36:18.279Z,93.23
2022-12-11T02:38:50.751Z,93.26
2022-12-11T02:41:19.916Z,93.23
2022-12-11T02:43:48.215Z,93.22
2022-12-11T02:46:17.853Z,93.17
2022-12-11T02:48:47.379Z,93.00
2022-12-11T02:51:16.496Z,92.91
2022-12-11T02:53:44.758Z,92.82
2022-12-11T02:56:16.667Z,93.05
2022-12-11T02:58:50.685Z,92.97
2022-12-11T03:01:20.620Z,92.92
2022-12-11T03:03:47.796Z,92.85
2022-12-11T03:06:18.388Z,92.85
2022-12-11T03:08:44.877Z,92.96
2022-12-11T03:11:12.521Z,92.76
2022-12-11T03:13:42.592Z,92.85
2022-12-11T03:16:17.962Z,92.88
2022-12-11T03:18:53.736Z,92.87
2022-12-11T03:21:30.266Z,92.93
2022-12-11T03:24:14.703Z,92.92
2022-12-11T03:26:54.469Z,92.76
2022-12-11T03:29:31.811Z,92.44
2022-12-11T03:32:04.614Z,92.56
2022-12-11T03:34:36.851Z,92.57
2022-12-11T03:37:05.653Z,92.67
2022-12-11T03:39:37.822Z,92.77
2022-12-11T03:42:09.691Z,92.82
2022-12-11T03:44:36.923Z,92.61
2022-12-11T03:47:07.371Z,92.68
2022-12-11T03:49:37.616Z,92.65
2022-12-11T03:52:06.287Z,92.52
2022-12-11T03:54:34.963Z,92.49
2022-12-11T03:57:04.338Z,92.33
2022-12-11T03:59:31.490Z,92.58
2022-12-11T04:01:58.395Z,92.56
2022-12-11T04:04:25.499Z,92.50
2022-12-11T04:06:52.221Z,92.50
2022-12-11T04:09:18.887Z,92.37
2022-12-11T04:11:45.639Z,92.15
2022-12-11T04:14:32.998Z,92.16
2022-12-11T04:17:00.810Z,92.11
2022-12-11T04:19:46.585Z,92.32
2022-12-11T04:22:34.536Z,92.40
2022-12-11T04:25:02.425Z,92.27
2022-12-11T04:27:49.182Z,92.17
2022-12-11T04:30:23.444Z,91.90
2022-12-11T04:32:50.544Z,92.03
2022-12-11T04:35:17.755Z,92.05
2022-12-11T04:37:44.518Z,92.09
2022-12-11T04:40:14.222Z,92.07
2022-12-11T04:42:41.380Z,91.93
2022-12-11T04:45:09.725Z,91.92
2022-12-11T04:47:38.869Z,91.84
2022-12-11T04:50:09.150Z,91.83
2022-12-11T04:52:35.826Z,91.96
2022-12-11T04:55:04.993Z,91.99
2022-12-11T04:57:31.642Z,91.90
2022-12-11T04:59:58.216Z,91.87
2022-12-11T05:02:24.891Z,91.83
2022-12-11T05:04:51.479Z,91.81
2022-12-11T05:07:18.224Z,91.83
2022-12-11T05:09:44.775Z,91.92
2022-12-11T05:12:11.408Z,91.91
2022-12-11T05:14:38.088Z,92.21
2022-12-11T05:17:04.630Z,92.13
2022-12-11T05:19:31.366Z,92.19
2022-12-11T05:21:57.905Z,92.19
2022-12-11T05:24:24.486Z,92.33
2022-12-11T05:26:51.158Z,92.16
2022-12-11T05:29:17.696Z,92.09
2022-12-11T05:31:44.337Z,92.06
2022-12-11T05:34:11.142Z,91.98
2022-12-11T05:36:37.768Z,92.06
2022-12-11T05:39:05.001Z,92.28
2022-12-11T05:41:32.896Z,92.07
2022-12-11T05:44:00.217Z,92.13
2022-12-11T05:46:29.992Z,92.26
2022-12-11T05:49:01.984Z,92.01
2022-12-11T05:51:29.796Z,92.12
2022-12-11T05:53:57.804Z,91.90
2022-12-11T05:56:30.586Z,92.01
2022-12-11T05:58:58.250Z,91.86
2022-12-11T06:01:27.952Z,92.04
2022-12-11T06:03:55.954Z,92.11
2022-12-11T06:06:24.050Z,92.09
2022-12-11T06:08:51.916Z,92.01
2022-12-11T06:11:23.790Z,92.13
2022-12-11T06:13:51.894Z,92.01
2022-12-11T06:16:19.434Z,92.03
2022-12-11T06:18:46.384Z,91.94
2022-12-11T06:21:25.982Z,91.89
2022-12-11T06:23:54.816Z,91.90
2022-12-11T06:26:22.068Z,91.85
2022-12-11T06:28:49.529Z,91.66
2022-12-11T06:31:17.847Z,91.65
2022-12-11T06:33:45.040Z,91.80
2022-12-11T06:36:17.616Z,91.79
2022-12-11T06:38:44.929Z,91.72
2022-12-11T06:41:12.195Z,91.52
2022-12-11T06:43:40.389Z,91.73
2022-12-11T06:46:09.974Z,91.67
2022-12-11T06:48:38.081Z,91.42
2022-12-11T06:51:09.841Z,91.40
2022-12-11T06:53:36.891Z,91.25
2022-12-11T06:56:05.573Z,91.29
2022-12-11T06:58:34.582Z,91.59
2022-12-11T07:01:03.268Z,91.37
2022-12-11T07:03:29.975Z,91.25
2022-12-11T07:06:02.930Z,91.30
2022-12-11T07:08:32.086Z,91.18
2022-12-11T07:11:12.704Z,91.11
2022-12-11T07:13:39.292Z,91.13
2022-12-11T07:16:10.952Z,91.04
2022-12-11T07:18:39.362Z,91.11
2022-12-11T07:21:07.617Z,91.14
2022-12-11T07:23:35.291Z,90.73
2022-12-11T07:26:09.159Z,90.78
2022-12-11T07:28:36.264Z,90.61
2022-12-11T07:31:11.224Z,90.51
2022-12-11T07:33:37.846Z,90.44
2022-12-11T07:36:06.991Z,90.54
2022-12-11T07:38:34.143Z,90.52
2022-12-11T07:41:02.206Z,90.47
2022-12-11T07:43:28.944Z,90.43
2022-12-11T07:45:55.754Z,90.69
2022-12-11T07:48:22.381Z,90.50
2022-12-11T07:50:49.059Z,90.39
2022-12-11T07:53:15.619Z,90.46
2022-12-11T07:55:42.279Z,90.54
2022-12-11T07:58:08.885Z,90.46
2022-12-11T08:00:35.475Z,90.36
2022-12-11T08:03:02.120Z,90.45
2022-12-11T08:05:29.036Z,90.28
2022-12-11T08:07:55.833Z,90.33
2022-12-11T08:10:23.050Z,90.08
2022-12-11T08:12:49.607Z,90.04
2022-12-11T08:15:16.159Z,90.02
2022-12-11T08:17:42.701Z,89.88
2022-12-11T08:20:09.891Z,89.95
2022-12-11T08:22:36.480Z,89.93
2022-12-11T08:25:03.299Z,89.72
2022-12-11T08:27:29.991Z,89.62
2022-12-11T08:29:56.574Z,89.69
2022-12-11T08:32:23.151Z,89.81
2022-12-11T08:34:51.734Z,89.81
2022-12-11T08:37:18.400Z,89.76
2022-12-11T08:39:47.124Z,89.66
2022-12-11T08:42:13.758Z,89.63
2022-12-11T08:44:40.382Z,89.31
2022-12-11T08:47:09.950Z,89.43
2022-12-11T08:49:36.936Z,89.07
2022-12-11T08:52:06.877Z,89.16
2022-12-11T08:54:33.603Z,89.04
2022-12-11T08:57:00.311Z,89.28
2022-12-11T08:59:26.851Z,89.00
2022-12-11T09:01:55.538Z,88.95
2022-12-11T09:04:23.248Z,88.94
2022-12-11T09:06:50.218Z,88.86
2022-12-11T09:09:17.109Z,88.83
2022-12-11T09:11:43.925Z,88.77
2022-12-11T09:14:10.613Z,88.42
2022-12-11T09:16:40.735Z,88.45
2022-12-11T09:19:11.163Z,88.42
2022-12-11T09:21:37.819Z,88.22
2022-12-11T09:24:04.822Z,88.35
2022-12-11T09:26:32.994Z,88.35
2022-12-11T09:28:59.674Z,88.32
2022-12-11T09:31:29.331Z,88.38
2022-12-11T09:33:58.422Z,88.23
2022-12-11T09:36:25.929Z,88.00
2022-12-11T09:38:52.639Z,87.83
2022-12-11T09:41:22.155Z,87.77
2022-12-11T09:43:51.635Z,87.65
2022-12-11T09:46:20.755Z,87.87
2022-12-11T09:48:50.157Z,87.80
2022-12-11T09:51:39.896Z,87.61
2022-12-11T09:54:06.740Z,87.43
2022-12-11T09:56:42.543Z,87.59
2022-12-11T09:59:35.039Z,87.86
2022-12-11T10:02:26.327Z,87.73
2022-12-11T10:04:59.250Z,87.70
2022-12-11T10:07:57.104Z,87.22
2022-12-11T10:10:51.711Z,87.40
2022-12-11T10:13:33.388Z,87.31
2022-12-11T10:16:23.009Z,87.49
2022-12-11T10:18:50.417Z,86.80
2022-12-11T10:21:18.750Z,86.62
2022-12-11T10:23:56.744Z,86.76
2022-12-11T10:26:23.912Z,86.62
2022-12-11T10:28:50.796Z,86.68
2022-12-11T10:31:29.314Z,86.38
2022-12-11T10:34:03.200Z,86.28
2022-12-11T10:36:34.343Z,86.51
2022-12-11T10:39:01.723Z,86.39
2022-12-11T10:41:39.847Z,86.46
2022-12-11T10:44:20.385Z,86.33
2022-12-11T10:46:48.090Z,86.11
2022-12-11T10:49:24.261Z,86.14
2022-12-11T10:51:52.632Z,85.97
2022-12-11T10:54:35.727Z,85.48
2022-12-11T10:57:03.892Z,85.81
2022-12-11T10:59:44.139Z,85.68
2022-12-11T11:02:26.064Z,85.36
2022-12-11T11:04:55.274Z,85.23
2022-12-11T11:07:25.698Z,84.96
2022-12-11T11:10:03.931Z,84.82
2022-12-11T11:12:30.665Z,84.47
2022-12-11T11:15:07.090Z,84.09
2022-12-11T11:17:51.291Z,84.42
2022-12-11T11:20:25.370Z,84.39
2022-12-11T11:22:54.069Z,84.43
2022-12-11T11:25:23.445Z,84.83
2022-12-11T11:27:59.387Z,85.07
2022-12-11T11:30:25.895Z,85.24
2022-12-11T11:32:56.735Z,85.35
2022-12-11T11:35:27.141Z,85.56
2022-12-11T11:38:00.694Z,85.58
2022-12-11T11:40:31.081Z,85.81
2022-12-11T11:43:43.833Z,85.92
2022-12-11T11:46:14.491Z,85.63
2022-12-11T11:49:07.603Z,85.63
2022-12-11T11:51:38.926Z,85.57
2022-12-11T11:54:30.412Z,85.17
2022-12-11T11:57:00.827Z,85.38
2022-12-11T11:59:33.715Z,85.27
2022-12-11T12:02:13.929Z,85.32
2022-12-11T12:04:42.239Z,84.90
2022-12-11T12:07:31.100Z,84.96
2022-12-11T12:10:36.908Z,84.98
2022-12-11T12:13:30.203Z,85.02
2022-12-11T12:15:59.634Z,84.98
2022-12-11T12:18:58.104Z,85.10
2022-12-11T12:21:35.122Z,85.13
2022-12-11T12:24:23.560Z,85.14
2022-12-11T12:26:57.430Z,85.08
2022-12-11T12:29:44.302Z,85.37
2022-12-11T12:32:29.093Z,85.31
2022-12-11T12:34:59.628Z,85.48
2022-12-11T12:37:47.819Z,85.48
2022-12-11T12:40:31.958Z,85.54
2022-12-11T12:43:17.200Z,85.37
2022-12-11T12:45:59.247Z,85.48
2022-12-11T12:48:28.211Z,85.84
2022-12-11T12:50:56.954Z,85.94
2022-12-11T12:53:28.755Z,85.95
2022-12-11T12:55:59.067Z,86.13
2022-12-11T12:58:25.609Z,86.09
2022-12-11T13:00:52.631Z,86.09
2022-12-11T13:03:35.819Z,86.06
2022-12-11T13:06:07.816Z,86.35
2022-12-11T13:08:42.754Z,86.42
2022-12-11T13:11:12.487Z,86.44
2022-12-11T13:13:42.247Z,86.41
2022-12-11T13:16:17.997Z,86.47
2022-12-11T13:18:49.887Z,86.35
2022-12-11T13:21:28.651Z,86.25
2022-12-11T13:24:12.704Z,86.39
2022-12-11T13:26:40.107Z,86.31
2022-12-11T13:29:06.978Z,86.43
2022-12-11T13:31:36.495Z,86.49
2022-12-11T13:34:20.718Z,86.57
2022-12-11T13:36:52.630Z,86.75
2022-12-11T13:39:27.631Z,86.73
2022-12-11T13:41:59.592Z,86.57
2022-12-11T13:44:41.784Z,86.80
2022-12-11T13:47:14.523Z,86.72
2022-12-11T13:49:44.472Z,86.45
2022-12-11T13:52:18.881Z,86.95
2022-12-11T13:54:51.599Z,86.91
2022-12-11T13:57:21.542Z,86.88
2022-12-11T13:59:53.026Z,87.07
2022-12-11T14:02:26.602Z,87.11
2022-12-11T14:04:58.227Z,87.26
2022-12-11T14:07:32.321Z,87.03
2022-12-11T14:10:33.523Z,87.14
2022-12-11T14:13:04.820Z,87.06
2022-12-11T14:15:37.900Z,87.06
2022-12-11T14:18:05.571Z,86.97
2022-12-11T14:20:34.119Z,86.94
2022-12-11T14:23:25.967Z,87.19
2022-12-11T14:25:58.791Z,87.30
2022-12-11T14:28:27.907Z,87.08
2022-12-11T14:30:59.759Z,87.54
2022-12-11T14:33:32.773Z,87.30
2022-12-11T14:36:01.354Z,87.38
2022-12-11T14:38:43.041Z,87.24
2022-12-11T14:41:23.741Z,87.51
2022-12-11T14:43:57.518Z,87.66
2022-12-11T14:46:32.799Z,87.51
2022-12-11T14:49:03.756Z,87.41
2022-12-11T14:51:38.721Z,87.69
2022-12-11T14:54:06.716Z,87.83
2022-12-11T14:56:34.146Z,87.67
2022-12-11T14:59:06.868Z,87.83
2022-12-11T15:01:36.648Z,87.71
2022-12-11T15:04:22.724Z,87.70
2022-12-11T15:06:51.856Z,87.69
2022-12-11T15:09:27.802Z,87.67
2022-12-11T15:11:59.962Z,87.69
2022-12-11T15:14:27.355Z,87.72
2022-12-11T15:16:57.328Z,87.41
2022-12-11T15:19:32.080Z,87.44
2022-12-11T15:22:04.691Z,87.40
2022-12-11T15:24:42.958Z,87.33
2022-12-11T15:27:33.537Z,87.31
2022-12-11T15:30:00.250Z,87.27
2022-12-11T15:32:33.703Z,87.45
2022-12-11T15:35:00.635Z,87.15
2022-12-11T15:37:33.094Z,87.28
2022-12-11T15:40:02.186Z,87.37
2022-12-11T15:42:36.079Z,87.31
2022-12-11T15:45:06.115Z,87.33
2022-12-11T15:47:32.998Z,87.16
2022-12-11T15:50:15.612Z,87.25
2022-12-11T15:52:42.649Z,87.36
2022-12-11T15:55:09.897Z,87.33
2022-12-11T15:57:37.245Z,87.31
2022-12-11T16:00:06.656Z,87.46
2022-12-11T16:02:33.945Z,87.35
2022-12-11T16:05:00.605Z,87.47
2022-12-11T16:07:27.221Z,87.59
2022-12-11T16:09:53.948Z,87.26
2022-12-11T16:12:20.780Z,87.65
2022-12-11T16:14:47.458Z,87.55
2022-12-11T16:17:15.225Z,87.48
2022-12-11T16:19:43.446Z,87.55
2022-12-11T16:22:12.320Z,87.66
2022-12-11T16:24:39.907Z,87.61
2022-12-11T16:27:07.910Z,87.51
2022-12-11T16:29:36.734Z,87.67
2022-12-11T16:32:04.584Z,87.79
2022-12-11T16:34:31.108Z,87.72
2022-12-11T16:36:58.803Z,87.64
2022-12-11T16:39:26.109Z,87.51
2022-12-11T16:41:52.790Z,87.32
2022-12-11T16:44:21.168Z,87.48
2022-12-11T16:46:48.305Z,87.64
2022-12-11T16:49:15.946Z,87.67
2022-12-11T16:51:43.006Z,87.70
2022-12-11T16:54:11.748Z,87.57
2022-12-11T16:56:39.027Z,87.60
2022-12-11T16:59:06.366Z,87.42
2022-12-11T17:01:33.825Z,87.38
2022-12-11T17:04:00.656Z,87.42
2022-12-11T17:06:27.640Z,87.31
2022-12-11T17:08:54.286Z,87.27
2022-12-11T17:11:24.935Z,87.45
2022-12-11T17:13:55.835Z,87.46
2022-12-11T17:16:24.927Z,87.34
2022-12-11T17:18:52.465Z,87.35
2022-12-11T17:21:20.863Z,87.46
2022-12-11T17:23:47.625Z,87.43
2022-12-11T17:26:16.843Z,87.36
2022-12-11T17:28:43.658Z,87.53
2022-12-11T17:31:16.016Z,87.56
2022-12-11T17:33:46.595Z,87.58
2022-12-11T17:36:20.722Z,87.75
2022-12-11T17:38:48.425Z,87.72
2022-12-11T17:41:20.512Z,87.79
2022-12-11T17:43:53.079Z,87.90
2022-12-11T17:46:21.054Z,87.75
2022-12-11T17:48:48.743Z,87.91
2022-12-11T17:51:21.241Z,87.87
2022-12-11T17:53:53.661Z,87.82
2022-12-11T17:56:20.617Z,87.80
2022-12-11T17:58:47.290Z,88.00
2022-12-11T18:01:14.042Z,87.89
2022-12-11T18:03:41.645Z,87.99
2022-12-11T18:06:12.767Z,87.97
2022-12-11T18:08:39.880Z,87.92
2022-12-11T18:11:08.757Z,88.07
2022-12-11T18:13:43.371Z,88.32
2022-12-11T18:16:17.466Z,88.03
2022-12-11T18:18:45.900Z,88.23
2022-12-11T18:21:18.404Z,88.30
2022-12-11T18:23:45.620Z,88.09
2022-12-11T18:26:16.200Z,88.22
2022-12-11T18:28:43.761Z,88.47
2022-12-11T18:31:11.422Z,88.45
2022-12-11T18:33:39.442Z,88.46
2022-12-11T18:36:06.625Z,88.41
2022-12-11T18:38:34.782Z,88.40
2022-12-11T18:41:07.934Z,88.38
2022-12-11T18:46:52.933Z,88.46
2022-12-11T18:49:22.095Z,88.46
2022-12-11T18:51:48.827Z,88.60
2022-12-11T18:54:25.883Z,88.45
2022-12-11T18:56:53.517Z,88.56
2022-12-11T18:59:26.706Z,88.39
2022-12-11T19:01:53.556Z,88.66
2022-12-11T19:04:20.497Z,88.88
2022-12-11T19:06:48.223Z,88.68
2022-12-11T19:09:15.147Z,88.70
2022-12-11T19:11:48.279Z,88.47
2022-12-11T19:14:22.143Z,88.48
2022-12-11T19:16:50.917Z,88.64
2022-12-11T19:19:20.856Z,88.50
2022-12-11T19:21:49.145Z,88.48
2022-12-11T19:24:23.524Z,88.36
2022-12-11T19:26:51.651Z,88.52
2022-12-11T19:29:25.493Z,88.14
2022-12-11T19:31:58.190Z,88.11
2022-12-11T19:34:25.443Z,88.48
2022-12-11T19:36:53.797Z,88.22
2022-12-11T19:39:20.547Z,88.30
2022-12-11T19:41:49.061Z,88.15
2022-12-11T19:44:16.830Z,88.20
2022-12-11T19:46:43.507Z,88.17
2022-12-11T19:49:11.647Z,88.38
2022-12-11T19:51:40.370Z,88.35
2022-12-11T19:54:10.192Z,88.25
2022-12-11T19:56:41.373Z,88.27
2022-12-11T19:59:11.949Z,88.25
2022-12-11T20:01:38.886Z,88.32
2022-12-11T20:04:10.823Z,88.45
2022-12-11T20:06:43.001Z,88.40
2022-12-11T20:09:12.192Z,88.33
2022-12-11T20:11:41.295Z,88.43
2022-12-11T20:14:09.689Z,88.13
2022-12-11T20:17:09.110Z,88.01
2022-12-11T20:19:29.993Z,87.91
2022-12-11T20:21:59.599Z,87.84
2022-12-11T20:24:26.567Z,87.90
2022-12-11T20:27:02.495Z,88.02
2022-12-11T20:29:32.343Z,88.10
2022-12-11T20:32:01.468Z,87.95
2022-12-11T20:34:28.190Z,87.99
2022-12-11T20:36:56.924Z,87.89
2022-12-11T20:39:41.660Z,87.97
2022-12-11T20:42:09.799Z,88.02
2022-12-11T20:44:44.166Z,87.95
2022-12-11T20:47:15.772Z,87.88
2022-12-11T20:49:42.475Z,87.87
2022-12-11T20:52:10.064Z,87.76
2022-12-11T20:54:41.903Z,87.90
2022-12-11T20:57:09.107Z,87.79
2022-12-11T20:59:36.914Z,88.09
2022-12-11T21:02:05.687Z,88.15
2022-12-11T21:04:38.043Z,88.22
2022-12-11T21:07:05.808Z,88.10
2022-12-11T21:09:32.362Z,88.38
2022-12-11T21:12:01.254Z,88.21
2022-12-11T21:14:28.685Z,88.39
2022-12-11T21:16:55.845Z,88.52
2022-12-11T21:19:25.903Z,88.32
2022-12-11T21:21:52.958Z,88.38
2022-12-11T21:24:26.649Z,88.18
2022-12-11T21:26:56.287Z,88.41
2022-12-11T21:29:26.873Z,88.22
2022-12-11T21:32:02.394Z,88.33
2022-12-11T21:34:33.691Z,88.46
2022-12-11T21:37:01.412Z,88.25
2022-12-11T21:39:28.851Z,88.28
2022-12-11T21:41:55.733Z,88.24
2022-12-11T21:47:09.060Z,88.53
2022-12-11T21:49:35.678Z,88.54
2022-12-11T21:52:03.273Z,88.55
2022-12-11T21:54:30.033Z,88.50
2022-12-11T21:56:57.031Z,88.75
2022-12-11T21:59:23.558Z,88.82
2022-12-11T22:01:50.550Z,88.63
2022-12-11T22:04:17.606Z,88.63
2022-12-11T22:06:47.056Z,88.71
2022-12-11T22:09:15.844Z,88.61
2022-12-11T22:11:42.969Z,88.54
2022-12-11T22:14:12.789Z,88.70
2022-12-11T22:16:42.028Z,88.88
2022-12-11T22:19:09.653Z,88.77
2022-12-11T22:21:36.628Z,88.69
2022-12-11T22:24:09.061Z,88.68
2022-12-11T22:26:35.868Z,88.90
2022-12-11T22:29:02.521Z,88.83
2022-12-11T22:32:08.152Z,88.92
2022-12-11T22:34:40.665Z,88.64
2022-12-11T22:38:56.004Z,88.78
2022-12-11T22:40:53.696Z,88.81
2022-12-11T22:43:20.616Z,88.81
2022-12-11T22:45:50.426Z,88.92
2022-12-11T22:48:18.463Z,88.75
2022-12-11T22:50:45.072Z,88.69
2022-12-11T22:53:11.794Z,88.79
2022-12-11T22:55:40.050Z,88.81
2022-12-11T22:58:07.108Z,88.99
2022-12-11T23:00:34.165Z,88.91
2022-12-11T23:03:02.184Z,89.04
2022-12-11T23:05:29.326Z,88.91
2022-12-11T23:07:56.034Z,88.90
2022-12-11T23:10:22.839Z,89.00
2022-12-11T23:12:50.730Z,89.07
2022-12-11T23:15:18.773Z,89.03
2022-12-11T23:17:45.641Z,89.01
2022-12-11T23:20:12.591Z,89.12
2022-12-11T23:22:39.199Z,89.01
2022-12-11T23:25:06.263Z,89.23
2022-12-11T23:27:33.227Z,89.17
2022-12-11T23:29:59.930Z,89.07
2022-12-11T23:32:26.618Z,89.16
2022-12-11T23:34:54.221Z,89.03
2022-12-11T23:37:21.208Z,89.13
2022-12-11T23:39:47.937Z,89.20
2022-12-11T23:42:15.696Z,89.07
2022-12-11T23:44:43.467Z,89.11
2022-12-11T23:47:10.172Z,89.06
2022-12-11T23:49:36.794Z,89.10
2022-12-11T23:52:03.417Z,88.99
2022-12-11T23:54:30.033Z,88.99
2022-12-11T23:56:56.654Z,89.00
2022-12-11T23:59:23.459Z,89.24
